Time;durP1;ratioP1;P1;durP2;ratioP2;P2;SDS_P1;SDS_P2;PMS_P1;PMS_P2;Temp;Humidity;BMP_temperature;BMP_pressure;BME280_temperature;BME280_humidity;BME280_pressure;Samples;Min_cycle;Max_cycle;Signal;HPM_P1;HPM_P2
2022/09/28 00:01:31;;;;;;;2.00;1.80;;;;;;;;;;5018895;28;92949;-60
2022/09/28 00:03:58;;;;;;;2.30;2.10;;;;;;;;;;5017545;28;92571;-60
2022/09/28 00:06:25;;;;;;;1.77;1.60;;;;;;;;;;5016887;28;92987;-60
2022/09/28 00:08:52;;;;;;;4.82;1.70;;;;;;;;;;5013932;28;95808;-60
2022/09/28 00:11:19;;;;;;;1.90;1.80;;;;;;;;;;5016496;28;92473;-60
2022/09/28 00:13:48;;;;;;;1.80;1.70;;;;;;;;;;5017050;28;93073;-60
2022/09/28 00:16:16;;;;;;;1.83;1.73;;;;;;;;;;5015604;28;92894;-60
2022/09/28 00:18:42;;;;;;;1.95;1.70;;;;;;;;;;5016772;28;92442;-60
2022/09/28 00:21:11;;;;;;;1.80;1.70;;;;;;;;;;5034440;28;93852;-60
2022/09/28 00:26:22;;;;;;;1.58;1.48;;;;;;;;;;5017844;28;93064;-60
2022/09/28 00:28:52;;;;;;;1.85;1.75;;;;;;;;;;5016180;28;92986;-60
2022/09/28 00:31:19;;;;;;;2.22;1.80;;;;;;;;;;5014883;28;92450;-60
2022/09/28 00:33:52;;;;;;;2.03;1.77;;;;;;;;;;4994645;28;94863;-60
2022/09/28 00:36:18;;;;;;;2.10;1.77;;;;;;;;;;4997569;28;94609;-60
2022/09/28 00:38:45;;;;;;;1.70;1.60;;;;;;;;;;5015401;28;92437;-60
2022/09/28 00:41:11;;;;;;;2.30;1.90;;;;;;;;;;5016403;28;93855;-60
2022/09/28 00:43:38;;;;;;;3.17;1.75;;;;;;;;;;5015756;28;93014;-60
2022/09/28 00:46:24;;;;;;;1.83;1.73;;;;;;;;;;5019396;28;92434;-60
2022/09/28 00:48:56;;;;;;;1.95;1.85;;;;;;;;;;4987654;28;95022;-60
2022/09/28 00:51:23;;;;;;;1.93;1.83;;;;;;;;;;4995446;28;91936;-60
2022/09/28 00:53:50;;;;;;;1.60;1.50;;;;;;;;;;5003315;28;93385;-60
2022/09/28 00:56:18;;;;;;;1.65;1.55;;;;;;;;;;5014643;28;94146;-60
2022/09/28 00:58:46;;;;;;;1.65;1.55;;;;;;;;;;5013783;28;95285;-60
2022/09/28 01:01:13;;;;;;;3.45;1.85;;;;;;;;;;5014419;28;96533;-61
2022/09/28 01:03:44;;;;;;;3.15;1.70;;;;;;;;;;5014347;28;95059;-60
2022/09/28 01:06:14;;;;;;;2.42;2.05;;;;;;;;;;5017143;28;92412;-60
2022/09/28 01:08:43;;;;;;;1.65;1.55;;;;;;;;;;5016024;28;93147;-60
2022/09/28 01:11:09;;;;;;;2.30;1.55;;;;;;;;;;5014302;28;92486;-60
2022/09/28 01:13:36;;;;;;;2.10;1.90;;;;;;;;;;5016745;28;93305;-60
2022/09/28 01:16:06;;;;;;;3.42;1.48;;;;;;;;;;5014731;28;94547;-60
2022/09/28 01:18:57;;;;;;;1.87;1.77;;;;;;;;;;5013881;28;92539;-60
2022/09/28 01:21:35;;;;;;;1.48;1.38;;;;;;;;;;5014828;28;93009;-60
2022/09/28 01:24:09;;;;;;;1.58;1.48;;;;;;;;;;5012157;28;97583;-60
2022/09/28 01:26:47;;;;;;;1.50;1.40;;;;;;;;;;5014029;28;92425;-60
2022/09/28 01:29:19;;;;;;;1.48;1.45;;;;;;;;;;5019138;28;92660;-60
2022/09/28 01:31:49;;;;;;;1.75;1.65;;;;;;;;;;5014111;28;92518;-60
2022/09/28 01:34:19;;;;;;;4.60;1.65;;;;;;;;;;5015049;28;92732;-60
2022/09/28 01:36:52;;;;;;;1.38;1.27;;;;;;;;;;5015725;28;93140;-60
2022/09/28 01:39:30;;;;;;;1.40;1.30;;;;;;;;;;5012651;28;92495;-60
2022/09/28 01:41:58;;;;;;;1.60;1.50;;;;;;;;;;5014543;28;94722;-60
2022/09/28 01:44:27;;;;;;;1.75;1.65;;;;;;;;;;5014755;28;94578;-61
2022/09/28 01:46:54;;;;;;;1.50;1.40;;;;;;;;;;5013712;28;92795;-60
2022/09/28 01:49:23;;;;;;;1.42;1.35;;;;;;;;;;5013681;28;94804;-60
2022/09/28 01:51:52;;;;;;;1.77;1.67;;;;;;;;;;5018249;28;93148;-60
2022/09/28 01:54:28;;;;;;;1.42;1.40;;;;;;;;;;5013159;28;95652;-60
2022/09/28 01:56:57;;;;;;;1.75;1.60;;;;;;;;;;5012903;28;95818;-60
2022/09/28 01:59:26;;;;;;;1.60;1.45;;;;;;;;;;5013366;28;92516;-60
2022/09/28 02:01:57;;;;;;;1.35;1.30;;;;;;;;;;5013280;28;95568;-60
2022/09/28 02:04:30;;;;;;;3.38;1.70;;;;;;;;;;5015002;28;93836;-60
2022/09/28 02:07:00;;;;;;;1.52;1.42;;;;;;;;;;5015883;28;91556;-60
2022/09/28 02:09:33;;;;;;;1.65;1.50;;;;;;;;;;5013408;28;95033;-60
2022/09/28 02:12:03;;;;;;;1.70;1.60;;;;;;;;;;5013507;28;95691;-60
2022/09/28 02:14:30;;;;;;;3.58;1.30;;;;;;;;;;5014716;28;95345;-60
2022/09/28 02:17:00;;;;;;;1.38;1.33;;;;;;;;;;5013399;28;93043;-60
2022/09/28 02:19:30;;;;;;;1.63;1.50;;;;;;;;;;5014332;28;92847;-60
2022/09/28 02:21:58;;;;;;;2.13;1.20;;;;;;;;;;5013244;28;95565;-60
2022/09/28 02:24:31;;;;;;;1.42;1.33;;;;;;;;;;5014407;28;93467;-60
2022/09/28 02:26:59;;;;;;;1.27;1.27;;;;;;;;;;5013358;28;92458;-60
2022/09/28 02:29:29;;;;;;;1.38;1.38;;;;;;;;;;5013032;28;92943;-60
2022/09/28 02:31:56;;;;;;;1.70;1.60;;;;;;;;;;5014080;28;92451;-60
2022/09/28 02:34:23;;;;;;;1.42;1.35;;;;;;;;;;4998435;28;92980;-60
2022/09/28 02:36:49;;;;;;;1.52;1.40;;;;;;;;;;5012227;28;94157;-60
2022/09/28 02:39:17;;;;;;;1.42;1.33;;;;;;;;;;5013113;28;95838;-60
2022/09/28 02:41:47;;;;;;;1.60;1.27;;;;;;;;;;5013355;28;95241;-60
2022/09/28 02:44:37;;;;;;;1.38;1.27;;;;;;;;;;5012241;28;94040;-60
2022/09/28 02:47:10;;;;;;;1.40;1.30;;;;;;;;;;4984747;28;92572;-60
2022/09/28 02:49:45;;;;;;;1.38;1.30;;;;;;;;;;5012775;28;92797;-60
2022/09/28 02:52:12;;;;;;;1.58;1.25;;;;;;;;;;5013589;28;93440;-60
2022/09/28 02:54:41;;;;;;;1.20;1.10;;;;;;;;;;5013159;28;92460;-60
2022/09/28 02:57:18;;;;;;;1.38;1.30;;;;;;;;;;5015764;28;92246;-60
2022/09/28 02:59:47;;;;;;;1.20;1.20;;;;;;;;;;5012728;28;92569;-60
2022/09/28 03:02:19;;;;;;;1.13;1.13;;;;;;;;;;5014117;28;92666;-60
2022/09/28 03:04:46;;;;;;;1.27;1.25;;;;;;;;;;5010423;28;95557;-60
2022/09/28 03:07:26;;;;;;;1.35;1.25;;;;;;;;;;5013007;28;92707;-60
2022/09/28 03:10:00;;;;;;;1.40;1.30;;;;;;;;;;5020353;28;94791;-60
2022/09/28 03:12:28;;;;;;;1.52;1.20;;;;;;;;;;5032251;27;93349;-60
2022/09/28 03:15:09;;;;;;;1.10;1.10;;;;;;;;;;5036561;28;92491;-60
2022/09/28 03:17:36;;;;;;;1.20;1.20;;;;;;;;;;5036115;28;92932;-60
2022/09/28 03:20:03;;;;;;;1.40;1.30;;;;;;;;;;5039366;28;93143;-60
2022/09/28 03:22:29;;;;;;;1.38;1.10;;;;;;;;;;5038262;28;91908;-60
2022/09/28 03:24:56;;;;;;;1.42;1.27;;;;;;;;;;5023979;28;95928;-60
2022/09/28 03:27:22;;;;;;;1.73;1.15;;;;;;;;;;5017144;28;92374;-60
2022/09/28 03:29:49;;;;;;;1.38;1.27;;;;;;;;;;5014401;28;94857;-60
2022/09/28 03:32:15;;;;;;;1.00;1.00;;;;;;;;;;5015154;28;93228;-60
2022/09/28 03:34:42;;;;;;;1.30;1.20;;;;;;;;;;5017509;28;92467;-60
2022/09/28 03:37:08;;;;;;;1.02;1.02;;;;;;;;;;5016099;28;93126;-60
2022/09/28 03:39:35;;;;;;;3.60;1.30;;;;;;;;;;5015435;28;93131;-60
2022/09/28 03:42:02;;;;;;;1.88;1.33;;;;;;;;;;5019240;28;92544;-60
2022/09/28 03:44:31;;;;;;;1.33;1.23;;;;;;;;;;5016801;28;93127;-60
2022/09/28 03:46:58;;;;;;;1.00;0.98;;;;;;;;;;5015756;28;91987;-60
2022/09/28 03:49:24;;;;;;;1.00;1.00;;;;;;;;;;5016119;28;94961;-60
2022/09/28 03:51:51;;;;;;;1.00;1.00;;;;;;;;;;5015698;28;93499;-60
2022/09/28 03:54:17;;;;;;;1.23;0.85;;;;;;;;;;5013399;28;95171;-60
2022/09/28 03:56:44;;;;;;;0.82;0.82;;;;;;;;;;5015223;28;94028;-60
2022/09/28 03:59:10;;;;;;;3.20;1.55;;;;;;;;;;4997108;28;93192;-60
2022/09/28 04:01:37;;;;;;;0.90;0.90;;;;;;;;;;5014960;28;92521;-60
2022/09/28 04:04:03;;;;;;;1.05;1.05;;;;;;;;;;5018214;28;93076;-60
2022/09/28 04:06:29;;;;;;;1.20;1.10;;;;;;;;;;5015512;28;93036;-60
2022/09/28 04:08:56;;;;;;;2.38;1.20;;;;;;;;;;5014487;28;95311;-60
2022/09/28 04:11:23;;;;;;;6.97;0.90;;;;;;;;;;5015936;28;92437;-60
2022/09/28 04:13:50;;;;;;;0.70;0.70;;;;;;;;;;5016599;28;92868;-60
2022/09/28 04:16:17;;;;;;;0.85;0.80;;;;;;;;;;5009933;28;93093;-60
2022/09/28 04:18:52;;;;;;;3.70;1.00;;;;;;;;;;5010299;28;95545;-60
2022/09/28 04:21:37;;;;;;;1.00;1.00;;;;;;;;;;5015781;28;92737;-60
2022/09/28 04:24:09;;;;;;;1.13;0.90;;;;;;;;;;5014598;28;93086;-60
2022/09/28 04:26:35;;;;;;;0.93;0.93;;;;;;;;;;5019139;28;93267;-60
2022/09/28 04:29:14;;;;;;;0.85;0.80;;;;;;;;;;5014732;28;92903;-60
2022/09/28 04:31:44;;;;;;;;;;;;;;;;;;5015572;28;93386;-60
2022/09/28 04:34:16;;;;;;;2.97;0.98;;;;;;;;;;5012740;28;93301;-60
2022/09/28 04:36:43;;;;;;;2.55;0.80;;;;;;;;;;5006960;28;95072;-60
2022/09/28 04:39:13;;;;;;;3.28;0.80;;;;;;;;;;5014647;28;93245;-60
2022/09/28 04:41:46;;;;;;;3.40;1.02;;;;;;;;;;5015462;28;92531;-60
2022/09/28 04:44:12;;;;;;;1.20;1.20;;;;;;;;;;5012930;28;94894;-60
2022/09/28 04:46:39;;;;;;;1.70;0.73;;;;;;;;;;5015156;28;93365;-60
2022/09/28 04:49:37;;;;;;;1.02;0.90;;;;;;;;;;5006376;28;92465;-60
2022/09/28 04:52:15;;;;;;;0.80;0.80;;;;;;;;;;5015135;28;93605;-60
2022/09/28 04:54:46;;;;;;;0.80;0.80;;;;;;;;;;5014662;28;92481;-60
2022/09/28 04:57:13;;;;;;;0.77;0.77;;;;;;;;;;5015195;28;93245;-60
2022/09/28 04:59:40;;;;;;;0.80;0.80;;;;;;;;;;5014434;28;95320;-60
2022/09/28 05:02:06;;;;;;;0.77;0.77;;;;;;;;;;5014548;28;91815;-60
2022/09/28 05:04:52;;;;;;;0.70;0.70;;;;;;;;;;5015161;28;93351;-60
2022/09/28 05:07:37;;;;;;;1.05;0.90;;;;;;;;;;5016045;28;92863;-60
2022/09/28 05:10:05;;;;;;;1.73;0.70;;;;;;;;;;5016031;28;94915;-60
2022/09/28 05:12:32;;;;;;;0.85;0.85;;;;;;;;;;5014915;28;95168;-60
2022/09/28 05:14:59;;;;;;;3.70;2.33;;;;;;;;;;5014352;28;92517;-60
2022/09/28 05:17:25;;;;;;;2.25;1.00;;;;;;;;;;5013980;28;92379;-60
2022/09/28 05:20:08;;;;;;;2.05;0.73;;;;;;;;;;5014120;28;93115;-60
2022/09/28 05:22:34;;;;;;;0.60;0.60;;;;;;;;;;5014612;28;93222;-60
2022/09/28 05:25:01;;;;;;;0.85;0.70;;;;;;;;;;5013323;28;93114;-60
2022/09/28 05:27:34;;;;;;;0.70;0.70;;;;;;;;;;5011866;28;93263;-60
2022/09/28 05:30:14;;;;;;;0.85;0.85;;;;;;;;;;4994323;28;92515;-60
2022/09/28 05:33:07;;;;;;;1.80;0.90;;;;;;;;;;4994861;28;92508;-60
2022/09/28 05:35:43;;;;;;;0.70;0.70;;;;;;;;;;4992488;28;94936;-60
2022/09/28 05:38:10;;;;;;;0.80;0.68;;;;;;;;;;5003704;28;97257;-60
2022/09/28 05:40:36;;;;;;;0.68;0.68;;;;;;;;;;5013842;28;93900;-60
2022/09/28 05:43:02;;;;;;;1.10;0.70;;;;;;;;;;5015963;28;92426;-60
2022/09/28 05:45:30;;;;;;;0.75;0.60;;;;;;;;;;5013513;28;92765;-60
2022/09/28 05:47:57;;;;;;;0.70;0.70;;;;;;;;;;5014803;28;92979;-60
2022/09/28 05:50:23;;;;;;;0.70;0.70;;;;;;;;;;5014115;28;92493;-60
2022/09/28 05:52:56;;;;;;;1.55;0.70;;;;;;;;;;5013536;28;94788;-60
2022/09/28 05:55:23;;;;;;;0.60;0.60;;;;;;;;;;5018491;28;93426;-60
2022/09/28 05:57:49;;;;;;;0.60;0.60;;;;;;;;;;5015052;28;92751;-60
2022/09/28 06:00:15;;;;;;;0.70;0.70;;;;;;;;;;5021167;28;95791;-60
2022/09/28 06:02:56;;;;;;;0.60;0.60;;;;;;;;;;5019911;28;93729;-60
2022/09/28 06:05:22;;;;;;;;;;;;;;;;;;5002143;28;95000;-60
2022/09/28 06:07:48;;;;;;;0.70;0.68;;;;;;;;;;4999808;28;124877;-61
2022/09/28 06:10:15;;;;;;;3.33;0.80;;;;;;;;;;5008613;28;93073;-60
2022/09/28 06:12:41;;;;;;;4.63;0.80;;;;;;;;;;4999881;28;93414;-59
2022/09/28 06:15:13;;;;;;;1.45;0.73;;;;;;;;;;4997836;28;93195;-60
2022/09/28 06:17:40;;;;;;;2.67;0.98;;;;;;;;;;4998523;28;93024;-60
2022/09/28 06:20:31;;;;;;;0.70;0.70;;;;;;;;;;5003019;27;93748;-60
2022/09/28 06:23:12;;;;;;;0.70;0.70;;;;;;;;;;5013364;28;92557;-60
2022/09/28 06:25:38;;;;;;;3.22;0.90;;;;;;;;;;5005643;28;94958;-58
2022/09/28 06:28:07;;;;;;;0.88;0.88;;;;;;;;;;5001384;28;93373;-60
2022/09/28 06:30:36;;;;;;;1.80;0.90;;;;;;;;;;5013302;28;92413;-60
2022/09/28 06:33:07;;;;;;;0.63;0.63;;;;;;;;;;5013490;28;92876;-60
2022/09/28 06:35:34;;;;;;;0.70;0.70;;;;;;;;;;5012719;28;95505;-60
2022/09/28 06:38:01;;;;;;;1.05;0.70;;;;;;;;;;5014883;28;92469;-63
2022/09/28 06:40:28;;;;;;;0.85;0.82;;;;;;;;;;5008360;28;93516;-59
2022/09/28 06:42:59;;;;;;;2.67;0.90;;;;;;;;;;4995086;28;91916;-60
2022/09/28 06:45:52;;;;;;;0.88;0.88;;;;;;;;;;5009677;28;93098;-60
2022/09/28 06:48:45;;;;;;;0.80;0.80;;;;;;;;;;5007864;27;93562;-60
2022/09/28 06:51:16;;;;;;;1.20;0.95;;;;;;;;;;5010534;28;94901;-60
2022/09/28 06:54:01;;;;;;;1.00;0.90;;;;;;;;;;5006049;28;94788;-60
2022/09/28 06:56:46;;;;;;;2.00;0.80;;;;;;;;;;5005521;28;92973;-60
2022/09/28 06:59:12;;;;;;;0.98;0.70;;;;;;;;;;5016174;28;93147;-60
2022/09/28 07:01:39;;;;;;;0.70;0.70;;;;;;;;;;5006398;28;92752;-60
2022/09/28 07:04:15;;;;;;;1.90;0.70;;;;;;;;;;5015530;28;93458;-60
2022/09/28 07:06:59;;;;;;;0.70;0.70;;;;;;;;;;4993496;28;93251;-60
2022/09/28 07:09:52;;;;;;;1.80;0.93;;;;;;;;;;5003193;28;94763;-60
2022/09/28 07:12:39;;;;;;;9.07;0.80;;;;;;;;;;4998629;28;92461;-59
2022/09/28 07:15:38;;;;;;;0.73;0.73;;;;;;;;;;4994448;28;92818;-59
2022/09/28 07:18:09;;;;;;;0.75;0.70;;;;;;;;;;5003820;28;95607;-60
2022/09/28 07:20:39;;;;;;;0.70;0.70;;;;;;;;;;5015314;28;92478;-60
2022/09/28 07:23:18;;;;;;;0.70;0.70;;;;;;;;;;5015214;28;93014;-60
2022/09/28 07:26:04;;;;;;;5.25;0.80;;;;;;;;;;5018464;28;92645;-60
2022/09/28 07:28:43;;;;;;;0.70;0.70;;;;;;;;;;5013020;28;95490;-60
2022/09/28 07:31:32;;;;;;;0.70;0.70;;;;;;;;;;5003267;28;93021;-57
2022/09/28 07:34:21;;;;;;;0.80;0.80;;;;;;;;;;5013498;28;94336;-60
2022/09/28 07:36:58;;;;;;;0.85;0.85;;;;;;;;;;5005442;28;91812;-60
2022/09/28 07:39:24;;;;;;;0.90;0.90;;;;;;;;;;5009501;28;92976;-60
2022/09/28 07:41:51;;;;;;;3.17;1.00;;;;;;;;;;5010224;28;92699;-60
2022/09/28 07:44:22;;;;;;;1.13;1.00;;;;;;;;;;4999315;28;95124;-60
2022/09/28 07:46:52;;;;;;;2.58;1.00;;;;;;;;;;5029175;27;93337;-59
2022/09/28 07:49:23;;;;;;;0.98;0.90;;;;;;;;;;5014624;28;92604;-60
2022/09/28 07:52:18;;;;;;;1.70;0.80;;;;;;;;;;4993326;28;92809;-60
2022/09/28 07:55:03;;;;;;;0.80;0.80;;;;;;;;;;5012432;28;94062;-60
2022/09/28 07:57:42;;;;;;;0.90;0.90;;;;;;;;;;4996553;28;92691;-60
2022/09/28 08:00:31;;;;;;;3.15;0.80;;;;;;;;;;4993871;28;92844;-60
2022/09/28 08:03:01;;;;;;;2.50;1.10;;;;;;;;;;5010833;28;91805;-60
2022/09/28 08:05:30;;;;;;;2.13;0.68;;;;;;;;;;5001296;28;92412;-60
2022/09/28 08:07:58;;;;;;;0.77;0.77;;;;;;;;;;5011023;28;95542;-60
2022/09/28 08:10:27;;;;;;;0.90;0.82;;;;;;;;;;4994085;28;94935;-60
2022/09/28 08:12:56;;;;;;;1.90;1.02;;;;;;;;;;4999542;28;95058;-59
2022/09/28 08:15:39;;;;;;;0.98;0.80;;;;;;;;;;4996184;28;92531;-60
2022/09/28 08:18:29;;;;;;;0.73;0.73;;;;;;;;;;4996950;28;92536;-60
2022/09/28 08:23:41;;;;;;;0.73;0.73;;;;;;;;;;5015976;28;92551;-60
2022/09/28 08:26:07;;;;;;;3.40;0.90;;;;;;;;;;5015271;28;93130;-60
2022/09/28 08:28:41;;;;;;;0.70;0.70;;;;;;;;;;5015326;28;91958;-59
2022/09/28 08:31:27;;;;;;;0.88;0.88;;;;;;;;;;4997392;28;92452;-59
2022/09/28 08:34:32;;;;;;;0.90;0.90;;;;;;;;;;4954267;28;92934;-60
2022/09/28 08:37:17;;;;;;;0.80;0.80;;;;;;;;;;4953803;28;95056;-60
2022/09/28 08:40:02;;;;;;;0.80;0.80;;;;;;;;;;4983908;28;94832;-60
2022/09/28 08:42:40;;;;;;;1.20;0.93;;;;;;;;;;4996039;28;92991;-59
2022/09/28 08:45:11;;;;;;;2.20;0.80;;;;;;;;;;4993700;28;92407;-60
2022/09/28 08:51:14;;;;;;;1.02;0.88;;;;;;;;;;4997916;28;92772;-59
2022/09/28 08:54:04;;;;;;;0.95;0.80;;;;;;;;;;5006107;28;93085;-60
2022/09/28 08:56:51;;;;;;;1.10;1.00;;;;;;;;;;5009977;28;92931;-59
2022/09/28 08:59:19;;;;;;;0.80;0.80;;;;;;;;;;5012660;28;93992;-59
2022/09/28 09:01:54;;;;;;;0.80;0.80;;;;;;;;;;5017546;28;92548;-59
2022/09/28 09:04:24;;;;;;;1.42;1.23;;;;;;;;;;5012036;28;97306;-59
2022/09/28 09:07:16;;;;;;;0.77;0.77;;;;;;;;;;5014602;28;92473;-59
2022/09/28 09:10:19;;;;;;;1.10;1.10;;;;;;;;;;5014343;28;93117;-59
2022/09/28 09:12:54;;;;;;;0.82;0.80;;;;;;;;;;5005707;28;95078;-59
2022/09/28 09:15:27;;;;;;;1.30;0.98;;;;;;;;;;5014651;28;92496;-59
2022/09/28 09:17:55;;;;;;;1.05;1.02;;;;;;;;;;5013688;28;94347;-59
2022/09/28 09:20:35;;;;;;;0.60;0.60;;;;;;;;;;5015695;28;93011;-59
2022/09/28 09:23:28;;;;;;;2.75;0.80;;;;;;;;;;5016041;28;91697;-59
2022/09/28 09:25:57;;;;;;;3.33;0.95;;;;;;;;;;5019163;28;92339;-59
2022/09/28 09:28:32;;;;;;;0.80;0.80;;;;;;;;;;5016031;28;92721;-59
2022/09/28 09:31:01;;;;;;;1.20;0.80;;;;;;;;;;5011831;28;94925;-59
2022/09/28 09:33:38;;;;;;;1.63;0.82;;;;;;;;;;5014536;28;93172;-59
2022/09/28 09:36:42;;;;;;;2.13;1.10;;;;;;;;;;5013323;28;92459;-59
2022/09/28 09:39:44;;;;;;;0.73;0.73;;;;;;;;;;4993152;28;92805;-60
2022/09/28 09:42:36;;;;;;;0.73;0.73;;;;;;;;;;5012875;28;92633;-59
2022/09/28 09:45:24;;;;;;;1.45;0.85;;;;;;;;;;5012550;28;92412;-59
2022/09/28 09:48:22;;;;;;;1.23;0.93;;;;;;;;;;5016602;28;92902;-59
2022/09/28 09:50:50;;;;;;;0.70;0.70;;;;;;;;;;5014675;28;91775;-60
2022/09/28 09:53:28;;;;;;;0.75;0.75;;;;;;;;;;5013099;28;94155;-59
2022/09/28 09:55:58;;;;;;;0.85;0.75;;;;;;;;;;5014093;28;95413;-59
2022/09/28 09:58:53;;;;;;;0.80;0.80;;;;;;;;;;5008215;28;95078;-59
2022/09/28 10:01:31;;;;;;;0.80;0.80;;;;;;;;;;4993747;28;97561;-60
2022/09/28 10:04:28;;;;;;;0.98;0.70;;;;;;;;;;4993554;28;95039;-60
2022/09/28 10:07:02;;;;;;;0.68;0.68;;;;;;;;;;5011218;28;92592;-59
2022/09/28 10:09:35;;;;;;;0.90;0.90;;;;;;;;;;5014088;28;93011;-59
2022/09/28 10:12:22;;;;;;;0.70;0.70;;;;;;;;;;5013849;28;92705;-59
2022/09/28 10:14:49;;;;;;;0.73;0.73;;;;;;;;;;5013448;28;92991;-59
2022/09/28 10:17:18;;;;;;;2.53;1.08;;;;;;;;;;5013898;28;92628;-59
2022/09/28 10:20:12;;;;;;;0.60;0.60;;;;;;;;;;5010548;28;93274;-60
2022/09/28 10:23:00;;;;;;;0.70;0.70;;;;;;;;;;5014002;28;93020;-59
2022/09/28 10:25:28;;;;;;;0.60;0.60;;;;;;;;;;5012093;28;95729;-59
2022/09/28 10:27:55;;;;;;;0.80;0.80;;;;;;;;;;5014484;28;92954;-59
2022/09/28 10:30:24;;;;;;;0.75;0.75;;;;;;;;;;5013533;28;94783;-59
2022/09/28 10:32:52;;;;;;;0.93;0.70;;;;;;;;;;5013489;28;93152;-60
2022/09/28 10:35:18;;;;;;;0.60;0.60;;;;;;;;;;5015882;28;92911;-59
2022/09/28 10:38:17;;;;;;;0.88;0.75;;;;;;;;;;5013313;28;93387;-59
2022/09/28 10:40:48;;;;;;;0.50;0.50;;;;;;;;;;5011413;28;92709;-59
2022/09/28 10:43:24;;;;;;;0.50;0.50;;;;;;;;;;5013790;28;92920;-59
2022/09/28 10:46:00;;;;;;;1.13;0.60;;;;;;;;;;5013254;28;92972;-60
2022/09/28 10:48:28;;;;;;;0.93;0.70;;;;;;;;;;4996607;28;92468;-60
2022/09/28 10:51:05;;;;;;;3.40;0.90;;;;;;;;;;4991885;28;96155;-60
2022/09/28 10:53:35;;;;;;;2.95;0.73;;;;;;;;;;5027155;28;95464;-59
2022/09/28 10:56:09;;;;;;;1.05;0.80;;;;;;;;;;5013581;28;93023;-59
2022/09/28 10:58:40;;;;;;;0.90;0.70;;;;;;;;;;5011292;28;93298;-60
2022/09/28 11:01:17;;;;;;;0.60;0.60;;;;;;;;;;4997079;28;93336;-60
2022/09/28 11:03:46;;;;;;;1.30;0.77;;;;;;;;;;4992388;28;94470;-60
2022/09/28 11:06:13;;;;;;;0.60;0.60;;;;;;;;;;5026200;28;95964;-60
2022/09/28 11:08:41;;;;;;;0.60;0.60;;;;;;;;;;4995085;28;91906;-59
2022/09/28 11:11:13;;;;;;;3.40;0.60;;;;;;;;;;4993074;28;92771;-60
2022/09/28 11:13:43;;;;;;;1.05;0.57;;;;;;;;;;5033266;27;93039;-59
2022/09/28 11:16:22;;;;;;;2.17;0.60;;;;;;;;;;4992385;28;95039;-59
2022/09/28 11:18:49;;;;;;;0.60;0.60;;;;;;;;;;5009245;28;97109;-59
2022/09/28 11:21:26;;;;;;;1.85;0.70;;;;;;;;;;5004544;28;93587;-60
2022/09/28 11:24:05;;;;;;;0.55;0.55;;;;;;;;;;5011897;28;92895;-59
2022/09/28 11:26:40;;;;;;;0.75;0.73;;;;;;;;;;4994448;28;93990;-57
2022/09/28 11:29:23;;;;;;;0.80;0.80;;;;;;;;;;4992880;28;93102;-59
2022/09/28 11:32:07;;;;;;;2.45;1.00;;;;;;;;;;4991855;28;93961;-59
2022/09/28 11:35:00;;;;;;;1.42;0.90;;;;;;;;;;4995544;28;92556;-59
2022/09/28 11:37:45;;;;;;;1.60;0.93;;;;;;;;;;4995630;28;92745;-59
2022/09/28 11:40:29;;;;;;;0.80;0.80;;;;;;;;;;4996259;28;92891;-59
2022/09/28 11:43:05;;;;;;;8.00;1.10;;;;;;;;;;4993963;28;96641;-59
2022/09/28 11:45:39;;;;;;;7.32;0.90;;;;;;;;;;4999501;28;92424;-59
2022/09/28 11:48:14;;;;;;;0.80;0.80;;;;;;;;;;5001848;28;93228;-60
2022/09/28 11:50:56;;;;;;;0.95;0.80;;;;;;;;;;5047144;27;95509;-61
2022/09/28 11:53:37;;;;;;;2.35;0.80;;;;;;;;;;5009795;28;93376;-60
2022/09/28 11:56:15;;;;;;;0.80;0.80;;;;;;;;;;4996909;28;93247;-59
2022/09/28 11:58:49;;;;;;;0.70;0.70;;;;;;;;;;5015276;28;92473;-59
2022/09/28 12:01:22;;;;;;;0.70;0.60;;;;;;;;;;5016082;28;93008;-59
2022/09/28 12:04:30;;;;;;;0.90;0.90;;;;;;;;;;5015470;28;93269;-60
2022/09/28 12:07:07;;;;;;;2.35;0.88;;;;;;;;;;5017992;28;92569;-59
2022/09/28 12:09:40;;;;;;;0.75;0.75;;;;;;;;;;5014162;28;97689;-59
2022/09/28 12:12:22;;;;;;;0.70;0.70;;;;;;;;;;5014710;28;92841;-59
2022/09/28 12:14:53;;;;;;;2.25;0.98;;;;;;;;;;5015710;28;92396;-60
2022/09/28 12:17:19;;;;;;;0.70;0.70;;;;;;;;;;5016232;28;93173;-60
2022/09/28 12:19:55;;;;;;;0.70;0.70;;;;;;;;;;5016249;28;92614;-59
2022/09/28 12:22:24;;;;;;;1.65;0.77;;;;;;;;;;5016906;28;93924;-59
2022/09/28 12:24:53;;;;;;;1.30;0.80;;;;;;;;;;5016619;28;94227;-60
2022/09/28 12:27:22;;;;;;;0.70;0.70;;;;;;;;;;5016328;28;92317;-61
2022/09/28 12:30:10;;;;;;;0.73;0.73;;;;;;;;;;5020139;28;92292;-59
2022/09/28 12:32:48;;;;;;;0.75;0.75;;;;;;;;;;5016664;28;92447;-60
2022/09/28 12:35:27;;;;;;;0.90;0.90;;;;;;;;;;5014457;28;94796;-59
2022/09/28 12:38:10;;;;;;;1.00;0.90;;;;;;;;;;5016509;28;94089;-60
2022/09/28 12:40:55;;;;;;;2.30;0.75;;;;;;;;;;5016158;28;92399;-59
2022/09/28 12:43:40;;;;;;;0.60;0.60;;;;;;;;;;5016655;28;93819;-59
2022/09/28 12:46:26;;;;;;;0.77;0.70;;;;;;;;;;5014653;28;93280;-59
2022/09/28 12:49:05;;;;;;;0.75;0.75;;;;;;;;;;5015138;28;92599;-59
2022/09/28 12:51:53;;;;;;;1.40;0.80;;;;;;;;;;5016739;28;94667;-59
2022/09/28 12:54:23;;;;;;;1.95;0.70;;;;;;;;;;5018672;28;93386;-59
2022/09/28 12:57:01;;;;;;;1.08;0.98;;;;;;;;;;5016045;28;92380;-60
2022/09/28 12:59:30;;;;;;;0.95;0.70;;;;;;;;;;5015917;28;93513;-59
2022/09/28 13:02:15;;;;;;;1.00;0.82;;;;;;;;;;5012986;28;94853;-59
2022/09/28 13:04:43;;;;;;;0.75;0.75;;;;;;;;;;5016000;28;95253;-59
2022/09/28 13:07:18;;;;;;;1.17;0.70;;;;;;;;;;5015367;28;93479;-59
2022/09/28 13:10:04;;;;;;;0.68;0.68;;;;;;;;;;5015279;28;92443;-59
2022/09/28 13:12:44;;;;;;;0.70;0.70;;;;;;;;;;5016237;28;92304;-59
2022/09/28 13:15:28;;;;;;;2.20;1.17;;;;;;;;;;5015336;28;93450;-59
2022/09/28 13:18:03;;;;;;;1.75;1.00;;;;;;;;;;5018468;28;92489;-59
2022/09/28 13:20:48;;;;;;;1.05;0.90;;;;;;;;;;5006787;28;92690;-60
2022/09/28 13:23:22;;;;;;;1.20;1.02;;;;;;;;;;5008018;28;92710;-60
2022/09/28 13:25:50;;;;;;;0.80;0.80;;;;;;;;;;5015476;28;93103;-60
2022/09/28 13:28:19;;;;;;;0.80;0.77;;;;;;;;;;4993635;28;95686;-59
2022/09/28 13:30:49;;;;;;;2.00;1.42;;;;;;;;;;4991979;28;93369;-59
2022/09/28 13:33:18;;;;;;;2.72;1.33;;;;;;;;;;5004533;28;92940;-61
2022/09/28 13:35:45;;;;;;;1.10;1.00;;;;;;;;;;5016467;28;93347;-61
2022/09/28 13:38:15;;;;;;;1.15;0.80;;;;;;;;;;5005520;28;94009;-61
2022/09/28 13:40:59;;;;;;;1.05;1.00;;;;;;;;;;5008633;28;93242;-61
2022/09/28 13:43:30;;;;;;;3.40;1.02;;;;;;;;;;5011368;28;93472;-60
2022/09/28 13:45:59;;;;;;;2.20;0.90;;;;;;;;;;5035351;28;92784;-60
2022/09/28 13:48:37;;;;;;;3.92;0.80;;;;;;;;;;5008788;27;92513;-59
2022/09/28 13:51:05;;;;;;;1.40;1.17;;;;;;;;;;4999582;28;92489;-59
2022/09/28 13:53:34;;;;;;;0.90;0.90;;;;;;;;;;4993808;28;94969;-59
2022/09/28 13:56:12;;;;;;;0.70;0.70;;;;;;;;;;4999289;28;93380;-59
2022/09/28 13:59:11;;;;;;;1.27;0.90;;;;;;;;;;4994686;28;92831;-59
2022/09/28 14:01:43;;;;;;;3.45;1.05;;;;;;;;;;4984473;28;93095;-59
2022/09/28 14:04:17;;;;;;;1.40;1.10;;;;;;;;;;4995996;28;92566;-60
2022/09/28 14:06:48;;;;;;;0.80;0.80;;;;;;;;;;5014618;28;92754;-60
2022/09/28 14:09:21;;;;;;;0.80;0.80;;;;;;;;;;5006855;28;93685;-59
2022/09/28 14:11:58;;;;;;;9.95;1.00;;;;;;;;;;5011705;28;91751;-59
2022/09/28 14:14:44;;;;;;;0.98;0.85;;;;;;;;;;5004673;28;92547;-59
2022/09/28 14:17:19;;;;;;;2.85;0.90;;;;;;;;;;5013776;28;93575;-59
2022/09/28 14:19:50;;;;;;;2.20;0.98;;;;;;;;;;5003540;28;95451;-59
2022/09/28 14:22:25;;;;;;;0.85;0.70;;;;;;;;;;5014864;28;95596;-59
2022/09/28 14:24:51;;;;;;;3.33;1.05;;;;;;;;;;5013122;28;94468;-59
2022/09/28 14:27:32;;;;;;;1.35;0.80;;;;;;;;;;5001945;28;92546;-59
2022/09/28 14:30:05;;;;;;;0.70;0.70;;;;;;;;;;5011791;28;92567;-59
2022/09/28 14:32:33;;;;;;;;;;;;;;;;;;5011727;28;92501;-59
2022/09/28 14:35:02;;;;;;;0.80;0.80;;;;;;;;;;4993946;28;123418;-59
2022/09/28 14:43:24;;;;;;;1.35;1.10;;;;;;;;;;5011911;28;93138;-60
2022/09/28 14:46:10;;;;;;;0.80;0.80;;;;;;;;;;5012908;28;96679;-60
2022/09/28 14:48:47;;;;;;;1.00;0.80;;;;;;;;;;5011396;28;93003;-60
2022/09/28 14:51:26;;;;;;;0.80;0.80;;;;;;;;;;5002183;28;94151;-60
2022/09/28 14:53:59;;;;;;;1.13;1.05;;;;;;;;;;4996020;28;92533;-60
2022/09/28 14:56:27;;;;;;;1.13;0.63;;;;;;;;;;4994878;28;93727;-60
2022/09/28 14:58:58;;;;;;;1.35;1.27;;;;;;;;;;5010505;28;93553;-60
2022/09/28 15:01:25;;;;;;;2.35;1.00;;;;;;;;;;5013376;28;93014;-59
2022/09/28 15:03:55;;;;;;;1.00;1.00;;;;;;;;;;5000045;28;93106;-59
2022/09/28 15:06:22;;;;;;;0.88;0.80;;;;;;;;;;5003977;28;93922;-60
2022/09/28 15:08:48;;;;;;;1.45;0.88;;;;;;;;;;4999992;28;94160;-60
2022/09/28 15:11:22;;;;;;;3.95;0.90;;;;;;;;;;5001526;28;95444;-60
2022/09/28 15:13:52;;;;;;;0.80;0.80;;;;;;;;;;4997123;28;92435;-60
2022/09/28 15:16:22;;;;;;;1.40;0.80;;;;;;;;;;5003420;28;92469;-59
2022/09/28 15:18:54;;;;;;;3.75;0.93;;;;;;;;;;5008803;28;94125;-62
2022/09/28 15:21:21;;;;;;;3.05;0.90;;;;;;;;;;5008255;28;94835;-62
2022/09/28 15:23:49;;;;;;;7.90;0.85;;;;;;;;;;5007688;28;94970;-61
2022/09/28 15:26:29;;;;;;;37.65;2.67;;;;;;;;;;5013180;28;93283;-61
2022/09/28 15:28:56;;;;;;;14.80;1.30;;;;;;;;;;5010667;28;92650;-62
2022/09/28 15:31:27;;;;;;;22.42;1.45;;;;;;;;;;5015132;28;93519;-61
2022/09/28 15:36:40;;;;;;;4.97;0.90;;;;;;;;;;5015306;28;94848;-62
2022/09/28 15:39:20;;;;;;;2.72;1.55;;;;;;;;;;5015318;28;94141;-62
2022/09/28 15:41:48;;;;;;;5.07;1.30;;;;;;;;;;5010711;28;92354;-62